Time,TemperatureF,DewpointF,PressureIn,WindDirection,WindDirectionDegrees,WindSpeedMPH,WindSpeedGustMPH,Humidity,HourlyPrecipIn,Conditions,Clouds,dailyrainin,SoftwareType,DateUTC
2013-05-22 00:02:00,58.0,55.0,-100.00,WNW,295,4.0,6.0,88,0.00,,,-99.99,,2013-05-22 05:02:00,
2013-05-22 00:12:00,57.0,55.0,-100.00,South,175,0.0,4.0,91,0.00,,,-99.99,,2013-05-22 05:12:00,
2013-05-22 00:21:00,58.0,56.0,-100.00,SE,125,2.0,4.0,93,0.00,,,-99.99,,2013-05-22 05:21:00,
2013-05-22 00:32:00,58.0,56.0,-100.00,SW,220,2.0,4.0,93,0.00,,,-99.99,,2013-05-22 05:32:00,
2013-05-22 00:42:00,58.0,56.0,-100.00,SW,220,2.0,4.0,93,0.00,,,-99.99,,2013-05-22 05:42:00,
2013-05-22 00:51:00,58.0,55.0,-100.00,SSW,205,0.0,2.0,91,0.00,,,-99.99,,2013-05-22 05:51:00,
2013-05-22 01:01:00,58.0,55.0,-100.00,SSW,205,0.0,2.0,91,0.00,,,-99.99,,2013-05-22 06:01:00,
2013-05-22 01:11:00,57.0,55.0,-100.00,WSW,240,0.0,0.0,93,0.00,,,-99.99,,2013-05-22 06:11:00,
2013-05-22 01:21:00,57.0,55.0,-100.00,SE,140,0.0,1.0,95,0.00,,,-99.99,,2013-05-22 06:21:00,
2013-05-22 01:32:00,56.0,55.0,-100.00,South,170,1.0,2.0,95,0.00,,,-99.99,,2013-05-22 06:32:00,
2013-05-22 01:42:00,56.0,55.0,-100.00,South,170,1.0,2.0,95,0.00,,,-99.99,,2013-05-22 06:42:00,
2013-05-22 01:52:00,56.0,55.0,-100.00,West,260,0.0,2.0,95,0.00,,,-99.99,,2013-05-22 06:52:00,
2013-05-22 02:01:00,56.0,55.0,-100.00,West,260,0.0,2.0,95,0.00,,,-99.99,,2013-05-22 07:01:00,
2013-05-22 02:11:00,56.0,55.0,-100.00,WSW,255,1.0,3.0,95,0.00,,,-99.99,,2013-05-22 07:11:00,
2013-05-22 02:21:00,57.0,55.0,-100.00,WSW,255,1.0,3.0,95,0.00,,,-99.99,,2013-05-22 07:21:00,
2013-05-22 02:31:00,56.0,54.0,-100.00,NW,305,0.0,2.0,95,0.00,,,-99.99,,2013-05-22 07:31:00,
2013-05-22 02:41:00,56.0,54.0,-100.00,NW,305,0.0,2.0,95,0.00,,,-99.99,,2013-05-22 07:41:00,
2013-05-22 02:52:00,57.0,56.0,-100.00,West,270,5.0,9.0,95,0.00,,,-99.99,,2013-05-22 07:52:00,
2013-05-22 03:02:00,57.0,56.0,-100.00,West,270,5.0,9.0,95,0.00,,,-99.99,,2013-05-22 08:02:00,
2013-05-22 03:11:00,57.0,55.0,-100.00,West,265,6.0,9.0,95,0.00,,,-99.99,,2013-05-22 08:11:00,
2013-05-22 03:22:00,57.0,55.0,-100.00,West,275,6.0,8.0,95,0.00,,,-99.99,,2013-05-22 08:22:00,
2013-05-22 03:31:00,56.0,55.0,-100.00,West,280,6.0,12.0,95,0.00,,,-99.99,,2013-05-22 08:31:00,
2013-05-22 03:42:00,56.0,55.0,-100.00,West,280,6.0,12.0,95,0.00,,,-99.99,,2013-05-22 08:42:00,
2013-05-22 03:51:00,55.0,54.0,-100.00,WNW,285,7.0,10.0,95,0.00,,,-99.99,,2013-05-22 08:51:00,
2013-05-22 04:01:00,55.0,54.0,-100.00,WNW,285,7.0,10.0,95,0.00,,,-99.99,,2013-05-22 09:01:00,
2013-05-22 04:11:00,55.0,54.0,-100.00,WNW,285,7.0,10.0,95,0.00,,,-99.99,,2013-05-22 09:11:00,
2013-05-22 04:21:00,56.0,54.0,-100.00,WNW,285,7.0,10.0,95,0.00,,,-99.99,,2013-05-22 09:21:00,
2013-05-22 04:33:00,55.0,54.0,-100.00,WNW,290,7.0,14.0,95,0.00,,,-99.99,,2013-05-22 09:33:00,
2013-05-22 04:42:00,55.0,54.0,-100.00,WNW,290,7.0,14.0,95,0.00,,,-99.99,,2013-05-22 09:42:00,
2013-05-22 04:53:00,55.0,54.0,-100.00,WNW,290,8.0,10.0,95,0.00,,,-99.99,,2013-05-22 09:53:00,
2013-05-22 05:03:00,55.0,54.0,-100.00,WNW,290,8.0,10.0,95,0.00,,,-99.99,,2013-05-22 10:03:00,
2013-05-22 05:12:00,55.0,54.0,-100.00,WNW,285,7.0,9.0,95,0.00,,,-99.99,,2013-05-22 10:12:00,
2013-05-22 05:22:00,54.0,53.0,-100.00,WNW,295,6.0,9.0,95,0.00,,,-99.99,,2013-05-22 10:22:00,
2013-05-22 05:33:00,54.0,53.0,-100.00,WNW,295,7.0,10.0,95,0.00,,,-99.99,,2013-05-22 10:33:00,
2013-05-22 05:42:00,54.0,53.0,-100.00,WNW,295,7.0,10.0,95,0.00,,,-99.99,,2013-05-22 10:42:00,
2013-05-22 05:52:00,54.0,53.0,-100.00,WNW,290,7.0,10.0,95,0.00,,,-99.99,,2013-05-22 10:52:00,
2013-05-22 06:02:00,54.0,53.0,-100.00,WNW,290,7.0,10.0,95,0.00,,,-99.99,,2013-05-22 11:02:00,
2013-05-22 06:11:00,54.0,53.0,-100.00,WNW,290,6.0,9.0,95,0.00,,,-99.99,,2013-05-22 11:11:00,
2013-05-22 06:21:00,55.0,53.0,-100.00,WNW,290,6.0,12.0,95,0.00,,,-99.99,,2013-05-22 11:21:00,
2013-05-22 06:32:00,55.0,54.0,-100.00,WNW,300,5.0,8.0,95,0.00,,,-99.99,,2013-05-22 11:32:00,
2013-05-22 06:41:00,55.0,54.0,-100.00,WNW,300,5.0,8.0,95,0.00,,,-99.99,,2013-05-22 11:41:00,
2013-05-22 06:52:00,56.0,54.0,-100.00,WNW,300,4.0,7.0,95,0.00,,,-99.99,,2013-05-22 11:52:00,
2013-05-22 07:02:00,56.0,55.0,-100.00,WNW,295,4.0,6.0,95,0.00,,,-99.99,,2013-05-22 12:02:00,
2013-05-22 07:12:00,56.0,55.0,-100.00,WNW,300,2.0,4.0,95,0.00,,,-99.99,,2013-05-22 12:12:00,
2013-05-22 07:22:00,56.0,55.0,-100.00,WNW,300,5.0,6.0,95,0.00,,,-99.99,,2013-05-22 12:22:00,
2013-05-22 07:32:00,57.0,56.0,-100.00,WNW,295,7.0,9.0,95,0.00,,,-99.99,,2013-05-22 12:32:00,
2013-05-22 07:42:00,57.0,56.0,-100.00,WNW,295,7.0,9.0,95,0.00,,,-99.99,,2013-05-22 12:42:00,
2013-05-22 07:52:00,57.0,56.0,-100.00,WNW,295,7.0,10.0,95,0.00,,,-99.99,,2013-05-22 12:52:00,
2013-05-22 08:01:00,57.0,56.0,-100.00,WNW,295,7.0,10.0,95,0.00,,,-99.99,,2013-05-22 13:01:00,
2013-05-22 08:11:00,58.0,57.0,-100.00,NW,305,7.0,12.0,95,0.00,,,-99.99,,2013-05-22 13:11:00,
2013-05-22 08:22:00,59.0,58.0,-100.00,WNW,285,6.0,12.0,95,0.00,,,-99.99,,2013-05-22 13:22:00,
2013-05-22 08:32:00,58.0,57.0,-100.00,WNW,295,9.0,13.0,95,0.00,,,-99.99,,2013-05-22 13:32:00,
2013-05-22 08:41:00,58.0,57.0,-100.00,WNW,295,9.0,13.0,95,0.00,,,-99.99,,2013-05-22 13:41:00,
2013-05-22 08:52:00,58.0,57.0,-100.00,WNW,290,9.0,10.0,95,0.00,,,-99.99,,2013-05-22 13:52:00,
2013-05-22 09:02:00,58.0,57.0,-100.00,WNW,290,9.0,10.0,95,0.00,,,-99.99,,2013-05-22 14:02:00,
2013-05-22 09:11:00,59.0,57.0,-100.00,WNW,290,7.0,11.0,95,0.00,,,-99.99,,2013-05-22 14:11:00,
2013-05-22 09:21:00,58.0,57.0,-100.00,WNW,295,9.0,16.0,95,0.00,,,-99.99,,2013-05-22 14:21:00,
2013-05-22 09:32:00,58.0,57.0,-100.00,WNW,285,12.0,17.0,95,0.00,,,-99.99,,2013-05-22 14:32:00,
2013-05-22 09:41:00,59.0,57.0,-100.00,WNW,295,9.0,15.0,95,0.00,,,-99.99,,2013-05-22 14:41:00,
2013-05-22 09:52:00,59.0,57.0,-100.00,WNW,285,8.0,15.0,95,0.00,,,-99.99,,2013-05-22 14:52:00,
2013-05-22 10:01:00,59.0,57.0,-100.00,WNW,285,8.0,15.0,95,0.00,,,-99.99,,2013-05-22 15:01:00,
2013-05-22 10:11:00,58.0,57.0,-100.00,WNW,290,9.0,17.0,95,0.00,,,-99.99,,2013-05-22 15:11:00,
2013-05-22 10:21:00,58.0,57.0,-100.00,West,280,12.0,16.0,95,0.00,,,-99.99,,2013-05-22 15:21:00,
2013-05-22 10:32:00,59.0,58.0,-100.00,WNW,295,10.0,15.0,95,0.00,,,-99.99,,2013-05-22 15:32:00,
2013-05-22 10:42:00,59.0,58.0,-100.00,WNW,295,10.0,15.0,95,0.00,,,-99.99,,2013-05-22 15:42:00,
2013-05-22 10:53:00,59.0,57.0,-100.00,WNW,295,9.0,15.0,94,0.00,,,-99.99,,2013-05-22 15:53:00,
2013-05-22 11:03:00,59.0,58.0,-100.00,WNW,300,11.0,16.0,95,0.00,,,-99.99,,2013-05-22 16:03:00,
2013-05-22 11:12:00,60.0,59.0,-100.00,West,280,9.0,12.0,94,0.00,,,-99.99,,2013-05-22 16:12:00,
2013-05-22 11:23:00,61.0,58.0,-100.00,WNW,295,10.0,15.0,92,0.00,,,-99.99,,2013-05-22 16:23:00,
2013-05-22 11:32:00,61.0,58.0,-100.00,West,275,11.0,16.0,89,0.00,,,-99.99,,2013-05-22 16:32:00,
2013-05-22 11:42:00,61.0,58.0,-100.00,West,275,11.0,16.0,89,0.00,,,-99.99,,2013-05-22 16:42:00,
2013-05-22 11:52:00,61.0,58.0,-100.00,WNW,290,9.0,14.0,89,0.00,,,-99.99,,2013-05-22 16:52:00,
2013-05-22 12:02:00,61.0,58.0,-100.00,WNW,290,9.0,14.0,89,0.00,,,-99.99,,2013-05-22 17:02:00,
2013-05-22 12:11:00,60.0,57.0,-100.00,WNW,295,10.0,17.0,90,0.00,,,-99.99,,2013-05-22 17:11:00,
2013-05-22 12:22:00,61.0,59.0,-100.00,WSW,255,8.0,17.0,91,0.00,,,-99.99,,2013-05-22 17:22:00,
2013-05-22 12:33:00,62.0,58.0,-100.00,WNW,290,10.0,14.0,87,0.00,,,-99.99,,2013-05-22 17:33:00,
2013-05-22 12:42:00,62.0,58.0,-100.00,WNW,290,10.0,14.0,87,0.00,,,-99.99,,2013-05-22 17:42:00,
2013-05-22 12:53:00,61.0,58.0,-100.00,West,280,11.0,19.0,90,0.00,,,-99.99,,2013-05-22 17:53:00,
2013-05-22 13:02:00,61.0,58.0,-100.00,West,280,11.0,19.0,90,0.00,,,-99.99,,2013-05-22 18:02:00,
2013-05-22 13:14:00,61.0,59.0,-100.00,WNW,290,9.0,20.0,93,0.00,,,-99.99,,2013-05-22 18:14:00,
2013-05-22 13:22:00,60.0,58.0,-100.00,WNW,290,13.0,18.0,94,0.00,,,-99.99,,2013-05-22 18:22:00,
2013-05-22 13:33:00,61.0,59.0,-100.00,West,280,12.0,17.0,94,0.00,,,-99.99,,2013-05-22 18:33:00,
2013-05-22 13:42:00,61.0,59.0,-100.00,West,280,12.0,17.0,94,0.00,,,-99.99,,2013-05-22 18:42:00,
2013-05-22 13:52:00,62.0,59.0,-100.00,West,265,12.0,17.0,90,0.00,,,-99.99,,2013-05-22 18:52:00,
2013-05-22 14:02:00,62.0,59.0,-100.00,West,265,12.0,17.0,90,0.00,,,-99.99,,2013-05-22 19:02:00,
2013-05-22 14:11:00,61.0,58.0,-100.00,WNW,285,10.0,20.0,90,0.00,,,-99.99,,2013-05-22 19:11:00,
2013-05-22 14:21:00,62.0,58.0,-100.00,WNW,290,13.0,18.0,87,0.00,,,-99.99,,2013-05-22 19:21:00,
2013-05-22 14:32:00,63.0,59.0,-100.00,West,275,11.0,17.0,85,0.00,,,-99.99,,2013-05-22 19:32:00,
2013-05-22 14:42:00,63.0,59.0,-100.00,West,275,11.0,17.0,85,0.00,,,-99.99,,2013-05-22 19:42:00,
2013-05-22 14:52:00,63.0,59.0,-100.00,WNW,285,14.0,19.0,85,0.00,,,-99.99,,2013-05-22 19:52:00,
2013-05-22 15:02:00,63.0,59.0,-100.00,WNW,285,14.0,19.0,85,0.00,,,-99.99,,2013-05-22 20:02:00,
2013-05-22 15:11:00,63.0,59.0,-100.00,WNW,290,13.0,19.0,85,0.00,,,-99.99,,2013-05-22 20:11:00,
2013-05-22 15:21:00,64.0,60.0,-100.00,WNW,285,16.0,20.0,86,0.00,,,-99.99,,2013-05-22 20:21:00,
2013-05-22 15:32:00,63.0,60.0,-100.00,West,265,9.0,21.0,88,0.00,,,-99.99,,2013-05-22 20:32:00,
2013-05-22 15:42:00,63.0,60.0,-100.00,West,265,9.0,21.0,88,0.00,,,-99.99,,2013-05-22 20:42:00,
2013-05-22 15:51:00,62.0,61.0,-100.00,West,280,12.0,18.0,95,0.00,,,-99.99,,2013-05-22 20:51:00,
2013-05-22 16:01:00,62.0,61.0,-100.00,West,280,12.0,18.0,95,0.00,,,-99.99,,2013-05-22 21:01:00,
2013-05-22 16:11:00,62.0,60.0,-100.00,WNW,285,18.0,22.0,91,0.00,,,-99.99,,2013-05-22 21:11:00,
2013-05-22 16:21:00,61.0,60.0,-100.00,WNW,300,7.0,21.0,95,0.00,,,-99.99,,2013-05-22 21:21:00,
2013-05-22 16:32:00,61.0,60.0,-100.00,WNW,295,13.0,17.0,95,0.00,,,-99.99,,2013-05-22 21:32:00,
2013-05-22 16:42:00,62.0,61.0,-100.00,West,280,11.0,16.0,95,0.00,,,-99.99,,2013-05-22 21:42:00,
2013-05-22 16:52:00,62.0,61.0,-100.00,WNW,295,10.0,16.0,95,0.00,,,-99.99,,2013-05-22 21:52:00,
2013-05-22 17:03:00,63.0,61.0,-100.00,NW,325,9.0,14.0,92,0.00,,,-99.99,,2013-05-22 22:03:00,
2013-05-22 17:13:00,62.0,61.0,-100.00,NW,315,10.0,17.0,94,0.00,,,-99.99,,2013-05-22 22:13:00,
2013-05-22 17:22:00,63.0,61.0,-100.00,NW,305,9.0,17.0,92,0.00,,,-99.99,,2013-05-22 22:22:00,
2013-05-22 17:33:00,63.0,60.0,-100.00,WNW,300,9.0,15.0,90,0.00,,,-99.99,,2013-05-22 22:33:00,
2013-05-22 17:42:00,63.0,61.0,-100.00,WNW,285,7.0,12.0,91,0.00,,,-99.99,,2013-05-22 22:42:00,
2013-05-22 17:52:00,58.0,57.0,-100.00,WNW,300,8.0,19.0,95,0.13,,,-99.99,,2013-05-22 22:52:00,
2013-05-22 18:02:00,58.0,57.0,-100.00,WNW,300,8.0,19.0,95,0.13,,,-99.99,,2013-05-22 23:02:00,
2013-05-22 18:12:00,59.0,57.0,-100.00,NW,310,7.0,17.0,95,0.07,,,-99.99,,2013-05-22 23:12:00,
2013-05-22 18:21:00,60.0,58.0,-100.00,WNW,300,6.0,12.0,95,0.00,,,-99.99,,2013-05-22 23:21:00,
2013-05-22 18:32:00,60.0,59.0,-100.00,WNW,295,12.0,19.0,95,0.00,,,-99.99,,2013-05-22 23:32:00,
2013-05-22 18:42:00,60.0,59.0,-100.00,WNW,295,12.0,19.0,95,0.00,,,-99.99,,2013-05-22 23:42:00,
2013-05-22 18:52:00,60.0,59.0,-100.00,WNW,290,12.0,16.0,95,0.00,,,-99.99,,2013-05-22 23:52:00,
2013-05-22 19:01:00,60.0,58.0,-100.00,WNW,295,15.0,20.0,95,0.00,,,-99.99,,2013-05-23 00:01:00,
2013-05-22 19:11:00,60.0,58.0,-100.00,WNW,290,11.0,18.0,95,0.00,,,-99.99,,2013-05-23 00:11:00,
2013-05-22 19:22:00,59.0,58.0,-100.00,WNW,290,9.0,16.0,95,0.00,,,-99.99,,2013-05-23 00:22:00,
2013-05-22 19:31:00,60.0,58.0,-100.00,WNW,295,10.0,16.0,95,0.00,,,-99.99,,2013-05-23 00:31:00,
2013-05-22 19:42:00,59.0,58.0,-100.00,WNW,300,9.0,14.0,95,0.00,,,-99.99,,2013-05-23 00:42:00,
2013-05-22 19:51:00,59.0,58.0,-100.00,WNW,295,10.0,15.0,95,0.00,,,-99.99,,2013-05-23 00:51:00,
2013-05-22 20:01:00,59.0,58.0,-100.00,WNW,300,11.0,17.0,95,0.00,,,-99.99,,2013-05-23 01:01:00,
2013-05-22 20:11:00,59.0,57.0,-100.00,WNW,295,11.0,17.0,95,0.00,,,-99.99,,2013-05-23 01:11:00,
2013-05-22 20:21:00,58.0,57.0,-100.00,NW,305,11.0,16.0,95,0.00,,,-99.99,,2013-05-23 01:21:00,
2013-05-22 20:32:00,58.0,57.0,-100.00,WNW,300,11.0,16.0,95,0.00,,,-99.99,,2013-05-23 01:32:00,
2013-05-22 20:42:00,58.0,57.0,-100.00,WNW,300,11.0,16.0,95,0.00,,,-99.99,,2013-05-23 01:42:00,
2013-05-22 20:52:00,58.0,56.0,-100.00,WNW,300,7.0,15.0,95,0.00,,,-99.99,,2013-05-23 01:52:00,
2013-05-22 21:01:00,58.0,56.0,-100.00,WNW,300,7.0,15.0,95,0.00,,,-99.99,,2013-05-23 02:01:00,
2013-05-22 21:11:00,58.0,56.0,-100.00,WNW,295,9.0,14.0,94,0.00,,,-99.99,,2013-05-23 02:11:00,
2013-05-22 21:21:00,58.0,56.0,-100.00,WNW,295,7.0,14.0,95,0.00,,,-99.99,,2013-05-23 02:21:00,
2013-05-22 21:31:00,58.0,56.0,-100.00,WNW,290,7.0,13.0,95,0.00,,,-99.99,,2013-05-23 02:31:00,
2013-05-22 21:42:00,58.0,56.0,-100.00,WNW,290,7.0,13.0,95,0.00,,,-99.99,,2013-05-23 02:42:00,
2013-05-22 21:51:00,58.0,56.0,-100.00,WNW,290,7.0,13.0,95,0.00,,,-99.99,,2013-05-23 02:51:00,
2013-05-22 22:01:00,57.0,56.0,-100.00,WNW,300,9.0,14.0,95,0.00,,,-99.99,,2013-05-23 03:01:00,
2013-05-22 22:11:00,57.0,56.0,-100.00,NW,310,7.0,14.0,95,0.00,,,-99.99,,2013-05-23 03:11:00,
2013-05-22 22:21:00,57.0,56.0,-100.00,WNW,300,6.0,14.0,95,0.00,,,-99.99,,2013-05-23 03:21:00,
2013-05-22 22:33:00,57.0,56.0,-100.00,WNW,295,7.0,13.0,94,0.00,,,-99.99,,2013-05-23 03:33:00,
2013-05-22 22:43:00,57.0,56.0,-100.00,WNW,295,7.0,13.0,94,0.00,,,-99.99,,2013-05-23 03:43:00,
2013-05-22 22:53:00,57.0,55.0,-100.00,NW,310,7.0,16.0,93,0.00,,,-99.99,,2013-05-23 03:53:00,
2013-05-22 23:03:00,57.0,55.0,-100.00,NW,310,7.0,16.0,93,0.00,,,-99.99,,2013-05-23 04:03:00,
2013-05-22 23:12:00,57.0,55.0,-100.00,WNW,295,7.0,14.0,92,0.00,,,-99.99,,2013-05-23 04:12:00,
2013-05-22 23:22:00,57.0,55.0,-100.00,NW,305,9.0,14.0,92,0.00,,,-99.99,,2013-05-23 04:22:00,
2013-05-22 23:33:00,57.0,55.0,-100.00,NW,310,9.0,16.0,94,0.00,,,-99.99,,2013-05-23 04:33:00,
2013-05-22 23:42:00,57.0,55.0,-100.00,NW,310,9.0,16.0,94,0.00,,,-99.99,,2013-05-23 04:42:00,
2013-05-22 23:52:00,56.0,55.0,-100.00,NW,310,6.0,13.0,95,0.00,,,-99.99,,2013-05-23 04:52:00,